createdAt,value
2022-12-08T00:01:16.880Z,11.55
2022-12-08T00:03:44.546Z,10.13
2022-12-08T00:06:49.919Z,15.00
2022-12-08T00:09:23.383Z,11.18
2022-12-08T00:11:52.509Z,14.77
2022-12-08T00:14:20.593Z,13.55
2022-12-08T00:16:48.057Z,17.05
2022-12-08T00:19:15.669Z,11.52
2022-12-08T00:21:43.075Z,14.35
2022-12-08T00:24:10.469Z,10.50
2022-12-08T00:26:38.061Z,13.63
2022-12-08T00:29:05.834Z,18.70
2022-12-08T00:31:33.349Z,11.40
2022-12-08T00:34:01.180Z,9.25
2022-12-08T00:36:28.673Z,10.32
2022-12-08T00:38:56.967Z,9.63
2022-12-08T00:41:44.047Z,9.45
2022-12-08T00:44:13.577Z,12.60
2022-12-08T00:46:43.498Z,9.52
2022-12-08T00:49:11.257Z,13.98
2022-12-08T00:51:38.678Z,14.55
2022-12-08T00:54:06.647Z,10.32
2022-12-08T00:56:34.211Z,14.93
2022-12-08T00:59:01.564Z,12.20
2022-12-08T01:01:29.400Z,13.80
2022-12-08T01:03:56.896Z,10.45
2022-12-08T01:06:24.558Z,11.10
2022-12-08T01:08:52.000Z,8.80
2022-12-08T01:11:19.534Z,10.35
2022-12-08T01:13:47.593Z,8.75
2022-12-08T01:16:28.065Z,7.18
2022-12-08T01:18:55.686Z,7.63
2022-12-08T01:21:23.389Z,11.38
2022-12-08T01:23:51.105Z,9.35
2022-12-08T01:26:19.067Z,8.70
2022-12-08T01:28:46.890Z,10.02
2022-12-08T01:31:16.984Z,8.30
2022-12-08T01:33:44.719Z,11.33
2022-12-08T01:36:22.229Z,11.07
2022-12-08T01:38:50.095Z,10.93
2022-12-08T01:41:18.903Z,9.07
2022-12-08T01:44:11.002Z,6.82
2022-12-08T01:46:40.001Z,10.35
2022-12-08T01:49:16.358Z,7.20
2022-12-08T01:51:49.533Z,12.85
2022-12-08T01:54:16.929Z,8.32
2022-12-08T01:56:46.717Z,10.27
2022-12-08T01:59:14.068Z,10.13
2022-12-08T02:01:41.531Z,9.20
2022-12-08T02:04:09.097Z,10.13
2022-12-08T02:06:38.647Z,8.02
2022-12-08T02:09:06.715Z,11.75
2022-12-08T02:11:34.644Z,9.20
2022-12-08T02:14:04.285Z,6.88
2022-12-08T02:16:39.356Z,8.90
2022-12-08T02:19:31.775Z,9.00
2022-12-08T02:22:32.244Z,8.68
2022-12-08T02:25:25.913Z,13.55
2022-12-08T02:28:38.504Z,9.40
2022-12-08T02:31:11.021Z,10.45
2022-12-08T02:34:07.792Z,11.82
2022-12-08T02:36:47.645Z,8.10
2022-12-08T02:39:42.889Z,8.80
2022-12-08T02:42:35.154Z,7.20
2022-12-08T02:45:07.384Z,11.38
2022-12-08T02:47:34.879Z,9.20
2022-12-08T02:50:02.815Z,11.60
2022-12-08T02:52:30.549Z,17.25
2022-12-08T02:55:05.788Z,10.25
2022-12-08T02:57:51.995Z,9.23
2022-12-08T03:00:21.038Z,10.60
2022-12-08T03:03:14.574Z,13.43
2022-12-08T03:06:05.774Z,8.05
2022-12-08T03:08:45.314Z,13.15
2022-12-08T03:11:20.549Z,10.20
2022-12-08T03:13:53.443Z,8.02
2022-12-08T03:16:24.784Z,14.10
2022-12-08T03:18:56.360Z,8.38
2022-12-08T03:21:23.822Z,11.93
2022-12-08T03:23:55.489Z,10.80
2022-12-08T03:26:47.076Z,9.02
2022-12-08T03:29:14.520Z,11.15
2022-12-08T03:31:45.061Z,10.23
2022-12-08T03:34:12.524Z,14.52
2022-12-08T03:36:39.909Z,15.05
2022-12-08T03:39:07.572Z,13.07
2022-12-08T03:41:35.032Z,14.68
2022-12-08T03:44:02.492Z,12.52
2022-12-08T03:48:56.783Z,14.18
2022-12-08T03:51:24.485Z,8.77
2022-12-08T03:53:52.020Z,14.98
2022-12-08T03:56:31.205Z,16.63
2022-12-08T03:58:58.756Z,9.43
2022-12-08T04:01:26.296Z,10.77
2022-12-08T04:03:53.980Z,15.52
2022-12-08T04:06:21.527Z,22.95
2022-12-08T04:08:49.076Z,17.52
2022-12-08T04:11:16.867Z,13.48
2022-12-08T04:13:44.554Z,9.23
2022-12-08T04:16:19.914Z,11.75
2022-12-08T04:18:48.013Z,12.00
2022-12-08T04:21:15.819Z,15.80
2022-12-08T04:23:43.379Z,15.10
2022-12-08T04:26:11.144Z,15.18
2022-12-08T04:28:39.112Z,18.17
2022-12-08T04:31:06.796Z,17.33
2022-12-08T04:33:35.442Z,13.90
2022-12-08T04:36:03.790Z,10.30
2022-12-08T04:38:31.676Z,13.90
2022-12-08T04:40:59.559Z,14.52
2022-12-08T04:43:27.085Z,15.52
2022-12-08T04:45:54.734Z,14.95
2022-12-08T04:48:22.123Z,12.25
2022-12-08T04:50:49.719Z,15.20
2022-12-08T04:53:17.372Z,18.35
2022-12-08T04:55:45.025Z,16.17
2022-12-08T04:58:13.931Z,13.10
2022-12-08T05:00:41.559Z,15.10
2022-12-08T05:03:09.262Z,14.32
2022-12-08T05:05:36.679Z,19.25
2022-12-08T05:08:04.406Z,16.83
2022-12-08T05:10:32.435Z,17.98
2022-12-08T05:13:00.415Z,15.70
2022-12-08T05:15:27.972Z,15.30
2022-12-08T05:17:57.315Z,15.63
2022-12-08T05:20:25.214Z,11.43
2022-12-08T05:22:52.831Z,13.70
2022-12-08T05:25:20.406Z,14.80
2022-12-08T05:27:48.033Z,19.80
2022-12-08T05:30:15.748Z,15.05
2022-12-08T05:32:43.146Z,17.67
2022-12-08T05:35:10.830Z,15.25
2022-12-08T05:37:38.339Z,14.93
2022-12-08T05:40:06.778Z,12.95
2022-12-08T05:42:34.320Z,24.17
2022-12-08T05:45:01.898Z,12.13
2022-12-08T05:47:33.155Z,9.63
2022-12-08T05:50:04.066Z,12.15
2022-12-08T05:52:32.461Z,17.45
2022-12-08T05:55:00.144Z,11.82
2022-12-08T05:57:27.568Z,19.77
2022-12-08T05:59:57.232Z,16.58
2022-12-08T06:02:24.817Z,13.55
2022-12-08T06:04:52.462Z,23.00
2022-12-08T06:07:19.903Z,9.75
2022-12-08T06:09:47.697Z,10.57
2022-12-08T06:12:16.261Z,11.55
2022-12-08T06:14:44.392Z,11.02
2022-12-08T06:17:11.865Z,10.35
2022-12-08T06:19:39.445Z,15.88
2022-12-08T06:22:06.939Z,16.92
2022-12-08T06:24:34.847Z,9.32
2022-12-08T06:27:02.360Z,13.63
2022-12-08T06:29:29.991Z,12.43
2022-12-08T06:31:57.480Z,17.73
2022-12-08T06:34:25.001Z,13.80
2022-12-08T06:36:52.690Z,13.02
2022-12-08T06:39:20.232Z,16.48
2022-12-08T06:42:06.280Z,16.33
2022-12-08T06:44:34.429Z,13.98
2022-12-08T06:47:01.885Z,15.25
2022-12-08T06:49:29.384Z,13.13
2022-12-08T06:51:56.986Z,18.85
2022-12-08T06:54:24.344Z,16.02
2022-12-08T06:56:51.846Z,21.10
2022-12-08T06:59:19.729Z,28.13
2022-12-08T07:01:47.197Z,18.55
2022-12-08T07:04:14.624Z,24.73
2022-12-08T07:06:42.040Z,16.30
2022-12-08T07:09:09.764Z,17.45
2022-12-08T07:11:38.735Z,19.85
2022-12-08T07:14:06.149Z,21.55
2022-12-08T07:16:33.705Z,15.07
2022-12-08T07:19:01.385Z,15.45
2022-12-08T07:21:29.256Z,16.95
2022-12-08T07:23:58.065Z,19.10
2022-12-08T07:26:25.783Z,20.42
2022-12-08T07:28:53.246Z,15.85
2022-12-08T07:31:24.930Z,14.45
2022-12-08T07:33:52.820Z,12.20
2022-12-08T07:36:20.608Z,13.95
2022-12-08T07:38:48.169Z,17.85
2022-12-08T07:41:16.825Z,16.02
2022-12-08T07:43:44.396Z,18.67
2022-12-08T07:46:13.375Z,15.15
2022-12-08T07:48:40.937Z,16.88
2022-12-08T07:51:08.571Z,20.80
2022-12-08T07:53:36.346Z,14.05
2022-12-08T07:56:06.689Z,18.52
2022-12-08T07:58:34.334Z,19.95
2022-12-08T08:01:01.955Z,21.55
2022-12-08T08:03:29.828Z,21.65
2022-12-08T08:06:03.579Z,19.65
2022-12-08T08:08:31.634Z,12.90
2022-12-08T08:11:00.045Z,23.13
2022-12-08T08:13:27.504Z,18.73
2022-12-08T08:15:55.157Z,22.70
2022-12-08T08:18:22.761Z,21.42
2022-12-08T08:20:50.353Z,18.23
2022-12-08T08:23:17.799Z,21.15
2022-12-08T08:25:45.201Z,26.30
2022-12-08T08:28:12.705Z,17.70
2022-12-08T08:30:40.432Z,23.85
2022-12-08T08:33:08.176Z,19.42
2022-12-08T08:35:35.963Z,23.00
2022-12-08T08:38:03.560Z,25.42
2022-12-08T08:40:31.133Z,21.25
2022-12-08T08:43:00.940Z,16.35
2022-12-08T08:45:28.496Z,17.55
2022-12-08T08:47:55.897Z,19.30
2022-12-08T08:50:23.345Z,20.40
2022-12-08T08:52:50.773Z,19.92
2022-12-08T08:55:18.284Z,18.35
2022-12-08T08:57:46.158Z,20.75
2022-12-08T09:00:14.657Z,14.45
2022-12-08T09:02:42.967Z,18.73
2022-12-08T09:05:10.405Z,17.10
2022-12-08T09:07:38.127Z,17.73
2022-12-08T09:10:06.388Z,15.40
2022-12-08T09:12:33.925Z,13.30
2022-12-08T09:15:01.508Z,15.65
2022-12-08T09:17:29.071Z,15.45
2022-12-08T09:19:56.550Z,15.65
2022-12-08T09:22:24.111Z,20.58
2022-12-08T09:24:51.777Z,16.20
2022-12-08T09:27:19.361Z,12.60
2022-12-08T09:29:46.915Z,15.60
2022-12-08T09:32:14.351Z,15.00
2022-12-08T09:34:41.808Z,18.58
2022-12-08T09:37:09.518Z,11.00
2022-12-08T09:39:36.982Z,10.80
2022-12-08T09:42:06.877Z,17.17
2022-12-08T09:44:49.854Z,19.00
2022-12-08T09:47:23.266Z,16.33
2022-12-08T09:50:21.216Z,15.43
2022-12-08T09:53:09.042Z,15.75
2022-12-08T09:56:21.671Z,20.80
2022-12-08T09:59:12.342Z,19.17
2022-12-08T10:01:42.076Z,13.20
2022-12-08T10:04:34.053Z,19.65
2022-12-08T10:07:17.063Z,16.83
2022-12-08T10:10:02.073Z,24.55
2022-12-08T10:12:55.045Z,21.17
2022-12-08T10:15:25.645Z,18.17
2022-12-08T10:17:53.123Z,16.03
2022-12-08T10:20:22.802Z,14.30
2022-12-08T10:22:53.188Z,19.52
2022-12-08T10:25:41.659Z,13.90
2022-12-08T10:28:09.118Z,15.88
2022-12-08T10:30:36.678Z,12.25
2022-12-08T10:33:04.105Z,13.65
2022-12-08T10:35:45.171Z,12.65
2022-12-08T10:40:51.095Z,12.05
2022-12-08T10:43:23.042Z,14.68
2022-12-08T10:45:51.343Z,9.60
2022-12-08T10:48:24.529Z,10.77
2022-12-08T10:50:58.797Z,9.85
2022-12-08T10:53:31.093Z,15.75
2022-12-08T10:55:58.369Z,10.15
2022-12-08T10:58:54.229Z,10.20
2022-12-08T11:01:26.422Z,12.38
2022-12-08T11:04:04.564Z,11.23
2022-12-08T11:06:34.473Z,16.48
2022-12-08T11:09:03.189Z,14.48
2022-12-08T11:11:49.981Z,12.95
2022-12-08T11:14:57.304Z,9.93
2022-12-08T11:17:26.835Z,8.85
2022-12-08T11:20:01.426Z,16.30
2022-12-08T11:22:29.425Z,17.15
2022-12-08T11:25:24.936Z,18.95
2022-12-08T11:27:59.889Z,14.35
2022-12-08T11:30:38.382Z,17.98
2022-12-08T11:33:22.523Z,17.58
2022-12-08T11:36:07.362Z,15.98
2022-12-08T11:38:35.543Z,16.08
2022-12-08T11:41:12.455Z,14.55
2022-12-08T11:44:04.144Z,18.80
2022-12-08T11:46:34.986Z,15.70
2022-12-08T11:49:06.600Z,12.75
2022-12-08T11:51:44.382Z,11.40
2022-12-08T11:54:28.271Z,16.38
2022-12-08T11:57:00.101Z,14.27
2022-12-08T11:59:32.401Z,16.15
2022-12-08T12:02:02.028Z,20.80
2022-12-08T12:04:55.088Z,19.80
2022-12-08T12:07:48.344Z,13.48
2022-12-08T12:10:22.395Z,15.85
2022-12-08T12:13:21.282Z,17.73
2022-12-08T12:16:22.370Z,13.68
2022-12-08T12:18:55.611Z,17.27
2022-12-08T12:21:25.979Z,15.35
2022-12-08T12:23:55.746Z,14.13
2022-12-08T12:26:28.329Z,12.15
2022-12-08T12:28:57.539Z,14.32
2022-12-08T12:31:26.959Z,12.70
2022-12-08T12:33:57.099Z,19.98
2022-12-08T12:36:25.684Z,16.63
2022-12-08T12:39:04.268Z,18.83
2022-12-08T12:41:53.484Z,14.60
2022-12-08T12:44:22.941Z,18.77
2022-12-08T12:46:50.368Z,19.85
2022-12-08T12:49:39.889Z,20.67
2022-12-08T12:52:10.771Z,22.08
2022-12-08T12:54:38.255Z,20.00
2022-12-08T12:57:05.562Z,15.57
2022-12-08T13:00:02.615Z,19.00
2022-12-08T13:02:31.079Z,15.60
2022-12-08T13:04:59.997Z,13.38
2022-12-08T13:07:33.166Z,15.18
2022-12-08T13:10:07.374Z,15.95
2022-12-08T13:12:35.153Z,14.52
2022-12-08T13:15:06.253Z,17.60
2022-12-08T13:17:35.669Z,20.67
2022-12-08T13:20:05.918Z,19.83
2022-12-08T13:23:15.138Z,16.83
2022-12-08T13:25:43.132Z,21.05
2022-12-08T13:28:15.998Z,22.45
2022-12-08T13:30:48.982Z,20.00
2022-12-08T13:33:27.496Z,20.48
2022-12-08T13:36:13.151Z,16.90
2022-12-08T13:38:40.637Z,24.42
2022-12-08T13:41:19.161Z,19.55
2022-12-08T13:44:31.142Z,20.10
2022-12-08T13:58:38.860Z,17.90
2022-12-08T14:01:16.821Z,15.02
2022-12-08T14:04:33.812Z,17.60
2022-12-08T14:06:46.918Z,18.83
2022-12-08T14:09:22.309Z,22.33
2022-12-08T14:12:03.442Z,23.73
2022-12-08T14:17:29.776Z,19.35
2022-12-08T14:20:05.517Z,15.50
2022-12-08T14:22:34.944Z,15.43
2022-12-08T14:25:02.699Z,14.93
2022-12-08T14:27:33.708Z,16.55
2022-12-08T14:30:02.702Z,17.35
2022-12-08T14:32:39.711Z,21.67
2022-12-08T14:35:07.351Z,22.23
2022-12-08T14:37:35.712Z,33.72
2022-12-08T14:40:06.917Z,26.48
2022-12-08T14:42:43.739Z,22.13
2022-12-08T14:45:12.973Z,21.73
2022-12-08T14:47:40.341Z,11.18
2022-12-08T14:50:40.486Z,16.10
2022-12-08T14:53:12.959Z,16.25
2022-12-08T14:55:40.414Z,16.13
2022-12-08T14:58:22.203Z,16.33
2022-12-08T15:00:52.206Z,17.70
2022-12-08T15:03:19.808Z,18.92
2022-12-08T15:05:52.248Z,17.60
2022-12-08T15:08:19.656Z,22.73
2022-12-08T15:10:48.310Z,20.70
2022-12-08T15:13:16.489Z,26.77
2022-12-08T15:15:50.465Z,19.17
2022-12-08T15:18:28.593Z,25.45
2022-12-08T15:21:01.340Z,27.88
2022-12-08T15:23:34.779Z,31.27
2022-12-08T15:26:03.832Z,20.38
2022-12-08T15:28:31.959Z,22.88
2022-12-08T15:30:59.716Z,24.77
2022-12-08T15:33:27.258Z,21.27
2022-12-08T15:35:54.744Z,22.02
2022-12-08T15:38:31.607Z,17.90
2022-12-08T15:41:00.081Z,20.95
2022-12-08T15:43:27.605Z,20.25
2022-12-08T15:45:59.566Z,22.20
2022-12-08T15:48:28.895Z,25.60
2022-12-08T15:50:56.565Z,15.55
2022-12-08T15:53:24.040Z,19.50
2022-12-08T15:58:58.144Z,25.17
2022-12-08T16:01:26.529Z,23.75
2022-12-08T16:04:43.813Z,29.60
2022-12-08T16:07:20.306Z,30.75
2022-12-08T16:09:34.402Z,25.50
2022-12-08T16:12:20.616Z,26.33
2022-12-08T16:17:36.120Z,33.20
2022-12-08T16:20:05.498Z,36.67
2022-12-08T16:25:22.152Z,36.10
2022-12-08T16:28:36.964Z,28.42
2022-12-08T16:30:39.626Z,29.45
2022-12-08T16:33:07.253Z,36.58
2022-12-08T16:35:34.664Z,47.95
2022-12-08T16:38:02.442Z,46.35
2022-12-08T16:40:30.530Z,35.47
2022-12-08T16:42:58.242Z,46.42
2022-12-08T16:45:27.651Z,43.28
2022-12-08T16:48:01.068Z,36.85
2022-12-08T16:50:33.049Z,40.78
2022-12-08T16:53:01.528Z,33.40
2022-12-08T16:55:29.072Z,34.72
2022-12-08T16:57:56.954Z,26.23
2022-12-08T17:00:26.372Z,26.50
2022-12-08T17:02:54.090Z,31.00
2022-12-08T17:05:22.563Z,23.25
2022-12-08T17:07:51.328Z,32.17
2022-12-08T17:10:21.172Z,19.75
2022-12-08T17:12:49.111Z,26.33
2022-12-08T17:15:17.798Z,21.95
2022-12-08T17:17:45.236Z,24.95
2022-12-08T17:20:14.952Z,29.33
2022-12-08T17:22:42.353Z,20.98
2022-12-08T17:25:10.241Z,17.65
2022-12-08T17:27:38.764Z,23.30
2022-12-08T17:30:07.574Z,18.80
2022-12-08T17:32:35.400Z,24.35
2022-12-08T17:35:03.437Z,22.58
2022-12-08T17:37:31.068Z,24.15
2022-12-08T17:39:58.538Z,20.33
2022-12-08T17:42:27.290Z,16.77
2022-12-08T17:44:54.925Z,16.95
2022-12-08T17:47:23.246Z,14.57
2022-12-08T17:49:50.822Z,13.45
2022-12-08T17:52:18.417Z,15.55
2022-12-08T17:54:45.868Z,21.30
2022-12-08T17:57:13.258Z,16.30
2022-12-08T17:59:40.944Z,20.27
2022-12-08T18:02:10.161Z,16.92
2022-12-08T18:04:37.566Z,19.90
2022-12-08T18:07:05.326Z,20.35
2022-12-08T18:09:33.769Z,24.77
2022-12-08T18:12:01.441Z,20.90
2022-12-08T18:14:29.020Z,20.08
2022-12-08T18:16:56.607Z,19.52
2022-12-08T18:19:25.010Z,20.17
2022-12-08T18:21:52.795Z,22.83
2022-12-08T18:24:22.462Z,19.10
2022-12-08T18:26:52.160Z,16.58
2022-12-08T18:29:20.514Z,20.35
2022-12-08T18:31:47.983Z,18.17
2022-12-08T18:34:15.313Z,19.70
2022-12-08T18:36:42.844Z,23.17
2022-12-08T18:39:26.660Z,19.80
2022-12-08T18:41:54.343Z,19.25
2022-12-08T18:44:21.686Z,19.90
2022-12-08T18:46:49.160Z,26.30
2022-12-08T18:49:18.787Z,16.85
2022-12-08T18:51:46.236Z,17.63
2022-12-08T18:54:13.657Z,24.60
2022-12-08T18:56:41.152Z,20.33
2022-12-08T18:59:10.571Z,29.65
2022-12-08T19:01:38.919Z,19.10
2022-12-08T19:06:55.148Z,16.73
2022-12-08T19:09:25.490Z,16.42
2022-12-08T19:11:52.961Z,22.23
2022-12-08T19:14:25.865Z,16.85
2022-12-08T19:16:58.577Z,19.15
2022-12-08T19:19:26.636Z,21.98
2022-12-08T19:21:54.397Z,22.50
2022-12-08T19:24:21.938Z,19.25
2022-12-08T19:26:49.548Z,15.73
2022-12-08T19:29:17.207Z,16.90
2022-12-08T19:31:45.043Z,19.52
2022-12-08T19:34:13.532Z,21.02
2022-12-08T19:36:42.664Z,15.43
2022-12-08T19:39:46.762Z,24.20
2022-12-08T19:42:37.859Z,20.95
2022-12-08T19:45:14.033Z,23.63
2022-12-08T19:47:41.603Z,24.98
2022-12-08T19:50:30.903Z,21.92
2022-12-08T19:52:58.685Z,18.88
2022-12-08T19:55:26.230Z,16.35
2022-12-08T19:57:54.803Z,22.63
2022-12-08T20:00:22.777Z,20.98
2022-12-08T20:02:51.519Z,15.95
2022-12-08T20:05:19.152Z,23.48
2022-12-08T20:07:47.145Z,19.27
2022-12-08T20:10:17.429Z,19.30
2022-12-08T20:12:44.987Z,12.57
2022-12-08T20:15:12.669Z,19.52
2022-12-08T20:17:42.020Z,18.20
2022-12-08T20:20:10.651Z,16.90
2022-12-08T20:22:38.563Z,16.63
2022-12-08T20:25:06.702Z,14.25
2022-12-08T20:27:34.844Z,17.58
2022-12-08T20:30:02.216Z,15.23
2022-12-08T20:32:29.798Z,16.92
2022-12-08T20:34:57.331Z,14.35
2022-12-08T20:37:24.740Z,14.45
2022-12-08T20:39:52.776Z,17.83
2022-12-08T20:42:20.466Z,19.80
2022-12-08T20:44:48.215Z,19.13
2022-12-08T20:47:15.937Z,14.30
2022-12-08T20:49:43.705Z,21.65
2022-12-08T20:52:11.302Z,16.98
2022-12-08T20:54:38.890Z,19.58
2022-12-08T20:57:06.671Z,16.05
2022-12-08T20:59:34.551Z,18.58
2022-12-08T21:02:02.599Z,17.02
2022-12-08T21:04:30.680Z,16.77
2022-12-08T21:06:58.217Z,13.00
2022-12-08T21:09:25.971Z,13.10
2022-12-08T21:11:54.109Z,13.40
2022-12-08T21:14:21.742Z,19.02
2022-12-08T21:16:51.182Z,14.77
2022-12-08T21:19:20.305Z,17.38
2022-12-08T21:21:50.854Z,16.60
2022-12-08T21:24:18.724Z,17.73
2022-12-08T21:26:46.519Z,13.82
2022-12-08T21:29:15.251Z,14.98
2022-12-08T21:31:43.192Z,13.23
2022-12-08T21:34:10.844Z,21.70
2022-12-08T21:36:38.507Z,14.52
2022-12-08T21:39:12.029Z,12.75
2022-12-08T21:41:58.092Z,16.40
2022-12-08T21:44:26.174Z,16.92
2022-12-08T21:46:53.870Z,22.13
2022-12-08T21:49:22.403Z,19.98
2022-12-08T21:51:50.059Z,20.30
2022-12-08T21:54:19.239Z,16.52
2022-12-08T21:56:48.101Z,17.77
2022-12-08T21:59:16.122Z,19.77
2022-12-08T22:01:43.912Z,19.75
2022-12-08T22:04:12.673Z,17.67
2022-12-08T22:06:41.230Z,15.48
2022-12-08T22:09:11.772Z,17.42
2022-12-08T22:11:39.266Z,22.80
2022-12-08T22:14:12.566Z,19.50
2022-12-08T22:16:43.089Z,19.73
2022-12-08T22:19:11.135Z,18.25
2022-12-08T22:21:39.190Z,16.15
2022-12-08T22:24:07.096Z,18.38
2022-12-08T22:26:34.812Z,19.60
2022-12-08T22:29:02.488Z,19.83
2022-12-08T22:31:30.436Z,25.05
2022-12-08T22:33:58.666Z,21.63
2022-12-08T22:36:26.944Z,21.45
2022-12-08T22:38:54.746Z,21.30
2022-12-08T22:41:22.454Z,29.08
2022-12-08T22:43:50.424Z,21.55
2022-12-08T22:46:27.385Z,22.73
2022-12-08T22:48:55.219Z,21.92
2022-12-08T22:51:23.034Z,23.85
2022-12-08T22:53:50.767Z,19.65
2022-12-08T22:56:18.640Z,21.60
2022-12-08T22:58:46.458Z,22.23
2022-12-08T23:01:29.257Z,22.35
2022-12-08T23:03:57.763Z,22.25
2022-12-08T23:06:25.736Z,26.27
2022-12-08T23:08:53.639Z,23.38
2022-12-08T23:11:22.253Z,17.45
2022-12-08T23:13:50.306Z,24.90
2022-12-08T23:16:18.027Z,25.00
2022-12-08T23:18:46.274Z,28.17
2022-12-08T23:21:15.620Z,23.85
2022-12-08T23:23:43.077Z,19.35
2022-12-08T23:26:19.395Z,24.20
2022-12-08T23:28:46.988Z,27.52
2022-12-08T23:31:15.013Z,26.63
2022-12-08T23:33:42.896Z,28.50
2022-12-08T23:36:10.585Z,31.92
2022-12-08T23:38:38.030Z,29.42
2022-12-08T23:41:06.631Z,23.25
2022-12-08T23:43:34.552Z,24.23
2022-12-08T23:46:02.765Z,24.30
2022-12-08T23:48:34.631Z,20.73
2022-12-08T23:51:02.594Z,23.38
2022-12-08T23:53:30.734Z,19.60
2022-12-08T23:56:08.468Z,22.58
2022-12-08T23:58:36.381Z,30.20
